createdAt,value
2022-09-16T00:01:50.025Z,90.31
2022-09-16T00:04:22.360Z,90.31
2022-09-16T00:06:53.622Z,90.03
2022-09-16T00:09:25.014Z,90.17
2022-09-16T00:11:56.281Z,90.16
2022-09-16T00:14:27.603Z,89.97
2022-09-16T00:16:58.909Z,90.27
2022-09-16T00:19:30.473Z,90.12
2022-09-16T00:22:01.725Z,90.11
2022-09-16T00:24:32.968Z,90.26
2022-09-16T00:27:04.839Z,90.34
2022-09-16T00:29:36.345Z,90.49
2022-09-16T00:32:07.890Z,89.96
2022-09-16T00:34:39.410Z,90.54
2022-09-16T00:37:10.899Z,90.31
2022-09-16T00:39:42.332Z,90.68
2022-09-16T00:42:13.602Z,90.42
2022-09-16T00:45:04.370Z,90.29
2022-09-16T00:47:45.316Z,90.16
2022-09-16T00:50:22.795Z,89.93
2022-09-16T00:52:55.915Z,89.76
2022-09-16T00:55:30.850Z,89.89
2022-09-16T00:58:09.249Z,90.09
2022-09-16T01:00:40.812Z,89.74
2022-09-16T01:03:12.113Z,90.02
2022-09-16T01:05:44.454Z,90.31
2022-09-16T01:08:15.710Z,90.18
2022-09-16T01:10:47.179Z,90.48
2022-09-16T01:13:19.734Z,90.50
2022-09-16T01:16:23.915Z,90.58
2022-09-16T01:19:10.562Z,91.09
2022-09-16T01:22:08.060Z,91.01
2022-09-16T01:25:17.430Z,90.92
2022-09-16T01:28:21.985Z,91.30
2022-09-16T01:31:13.861Z,91.41
2022-09-16T01:34:22.776Z,91.45
2022-09-16T01:37:11.762Z,91.66
2022-09-16T01:39:59.636Z,91.59
2022-09-16T01:43:12.849Z,91.82
2022-09-16T01:45:55.240Z,91.99
2022-09-16T01:48:39.609Z,92.29
2022-09-16T01:51:21.716Z,91.98
2022-09-16T01:54:24.450Z,92.15
2022-09-16T01:57:19.117Z,92.20
2022-09-16T01:59:56.328Z,92.47
2022-09-16T02:02:37.350Z,92.20
2022-09-16T02:05:15.346Z,92.04
2022-09-16T02:07:51.385Z,91.93
2022-09-16T02:10:32.797Z,92.13
2022-09-16T02:13:12.972Z,92.12
2022-09-16T02:15:49.998Z,92.05
2022-09-16T02:18:30.078Z,92.49
2022-09-16T02:21:05.565Z,92.24
2022-09-16T02:23:41.541Z,91.90
2022-09-16T02:26:17.519Z,92.03
2022-09-16T02:28:53.360Z,92.23
2022-09-16T02:31:30.168Z,91.98
2022-09-16T02:34:15.485Z,91.83
2022-09-16T02:36:55.421Z,91.72
2022-09-16T02:39:32.295Z,91.63
2022-09-16T02:42:04.130Z,91.91
2022-09-16T02:44:35.544Z,92.00
2022-09-16T02:47:20.353Z,92.25
2022-09-16T02:49:54.955Z,92.30
2022-09-16T02:52:46.336Z,92.52
2022-09-16T02:55:30.086Z,92.53
2022-09-16T02:58:01.470Z,92.21
2022-09-16T03:00:39.205Z,92.47
2022-09-16T03:03:10.696Z,92.37
2022-09-16T03:06:03.937Z,92.24
2022-09-16T03:08:36.997Z,92.04
2022-09-16T03:11:48.967Z,91.82
2022-09-16T03:14:53.372Z,92.15
2022-09-16T03:17:33.517Z,92.31
2022-09-16T03:20:25.733Z,92.21
2022-09-16T03:23:06.061Z,92.44
2022-09-16T03:25:56.292Z,92.42
2022-09-16T03:28:43.118Z,92.76
2022-09-16T03:31:27.336Z,92.54
2022-09-16T03:34:09.238Z,93.00
2022-09-16T03:36:46.078Z,93.13
2022-09-16T03:39:18.454Z,93.04
2022-09-16T03:41:49.791Z,93.09
2022-09-16T03:44:21.350Z,92.96
2022-09-16T03:46:52.608Z,92.94
2022-09-16T03:49:23.870Z,93.29
2022-09-16T03:51:55.216Z,93.13
2022-09-16T03:54:26.532Z,93.19
2022-09-16T03:56:58.050Z,92.80
2022-09-16T03:59:29.835Z,92.55
2022-09-16T04:02:01.225Z,92.74
2022-09-16T04:04:32.530Z,92.59
2022-09-16T04:07:03.925Z,93.38
2022-09-16T04:09:37.189Z,93.10
2022-09-16T04:12:09.040Z,93.60
2022-09-16T04:14:40.311Z,93.84
2022-09-16T04:17:11.555Z,93.76
2022-09-16T04:19:43.676Z,93.52
2022-09-16T04:22:15.272Z,93.55
2022-09-16T04:24:46.575Z,93.47
2022-09-16T04:27:17.824Z,93.17
2022-09-16T04:29:49.589Z,93.43
2022-09-16T04:32:21.448Z,93.16
2022-09-16T04:34:52.744Z,93.27
2022-09-16T04:37:24.109Z,93.44
2022-09-16T04:39:55.690Z,93.46
2022-09-16T04:42:26.954Z,93.55
2022-09-16T04:44:58.281Z,93.41
2022-09-16T04:47:29.748Z,92.97
2022-09-16T04:50:01.017Z,92.86
2022-09-16T04:52:32.419Z,92.96
2022-09-16T04:55:03.925Z,92.70
2022-09-16T04:57:35.249Z,92.79
2022-09-16T05:00:07.283Z,92.69
2022-09-16T05:02:38.541Z,92.75
2022-09-16T05:05:09.804Z,91.97
2022-09-16T05:07:41.041Z,92.45
2022-09-16T05:10:12.405Z,92.43
2022-09-16T05:12:47.882Z,92.64
2022-09-16T05:15:21.324Z,92.82
2022-09-16T05:17:53.144Z,93.36
2022-09-16T05:20:24.682Z,93.29
2022-09-16T05:22:56.020Z,93.16
2022-09-16T05:25:27.282Z,93.38
2022-09-16T05:27:58.536Z,93.13
2022-09-16T05:30:29.880Z,93.41
2022-09-16T05:33:01.368Z,93.07
2022-09-16T05:35:32.635Z,93.24
2022-09-16T05:38:04.014Z,92.96
2022-09-16T05:40:35.388Z,92.97
2022-09-16T05:43:06.692Z,92.58
2022-09-16T05:45:38.513Z,92.51
2022-09-16T05:48:09.854Z,92.87
2022-09-16T05:50:41.120Z,93.19
2022-09-16T05:53:12.413Z,93.30
2022-09-16T05:55:43.982Z,93.70
2022-09-16T05:58:15.348Z,94.01
2022-09-16T06:00:46.610Z,93.79
2022-09-16T06:03:18.423Z,94.15
2022-09-16T06:05:49.840Z,94.24
2022-09-16T06:08:21.213Z,94.63
2022-09-16T06:10:52.542Z,93.89
2022-09-16T06:13:23.815Z,93.68
2022-09-16T06:15:55.264Z,93.98
2022-09-16T06:18:28.666Z,93.18
2022-09-16T06:21:05.548Z,93.50
2022-09-16T06:23:38.373Z,93.32
2022-09-16T06:26:13.980Z,94.14
2022-09-16T06:28:46.707Z,94.45
2022-09-16T06:31:26.256Z,94.81
2022-09-16T06:33:58.200Z,94.65
2022-09-16T06:36:33.496Z,94.71
2022-09-16T06:39:06.460Z,94.40
2022-09-16T06:41:37.737Z,94.10
2022-09-16T06:44:09.242Z,93.97
2022-09-16T06:46:40.974Z,93.91
2022-09-16T06:49:12.945Z,94.05
2022-09-16T06:51:44.412Z,94.75
2022-09-16T06:54:15.797Z,94.46
2022-09-16T06:56:47.077Z,94.01
2022-09-16T06:59:18.481Z,93.66
2022-09-16T07:01:49.849Z,93.77
2022-09-16T07:04:21.176Z,93.88
2022-09-16T07:09:43.920Z,93.54
2022-09-16T07:12:18.910Z,93.37
2022-09-16T07:14:50.984Z,93.41
2022-09-16T07:17:25.907Z,93.56
2022-09-16T07:19:57.282Z,93.58
2022-09-16T07:22:31.147Z,93.23
2022-09-16T07:25:02.484Z,93.61
2022-09-16T07:27:34.020Z,93.76
2022-09-16T07:30:08.938Z,93.36
2022-09-16T07:32:40.566Z,92.69
2022-09-16T07:35:11.957Z,92.38
2022-09-16T07:37:43.268Z,92.29
2022-09-16T07:40:14.814Z,92.00
2022-09-16T07:42:46.116Z,91.82
2022-09-16T07:45:17.458Z,91.26
2022-09-16T07:47:49.666Z,91.12
2022-09-16T07:50:21.053Z,91.54
2022-09-16T07:52:56.037Z,91.26
2022-09-16T07:55:27.583Z,90.57
2022-09-16T07:57:58.913Z,90.64
2022-09-16T08:00:30.216Z,90.16
2022-09-16T08:03:01.550Z,89.84
2022-09-16T08:05:32.868Z,89.65
2022-09-16T08:08:05.230Z,89.25
2022-09-16T08:10:39.710Z,88.48
2022-09-16T08:13:11.094Z,88.11
2022-09-16T08:15:42.402Z,88.75
2022-09-16T08:18:14.143Z,88.63
2022-09-16T08:20:45.416Z,87.76
2022-09-16T08:23:16.976Z,87.38
2022-09-16T08:25:56.378Z,86.67
2022-09-16T08:28:39.824Z,86.29
2022-09-16T08:31:20.914Z,86.51
2022-09-16T08:33:52.363Z,84.87
2022-09-16T08:36:25.001Z,84.04
2022-09-16T08:38:57.312Z,83.65
2022-09-16T08:41:37.850Z,83.46
2022-09-16T08:44:16.772Z,82.75
2022-09-16T08:46:59.632Z,82.95
2022-09-16T08:49:46.755Z,83.35
2022-09-16T08:52:32.648Z,82.68
2022-09-16T08:55:07.054Z,83.16
2022-09-16T08:57:51.823Z,82.13
2022-09-16T09:00:23.349Z,82.12
2022-09-16T09:02:58.795Z,81.23
2022-09-16T09:05:36.277Z,81.09
2022-09-16T09:08:39.817Z,80.30
2022-09-16T09:11:35.418Z,79.79
2022-09-16T09:14:27.617Z,80.87
2022-09-16T09:17:27.097Z,78.94
2022-09-16T09:20:13.609Z,78.69
2022-09-16T09:22:59.369Z,78.95
2022-09-16T09:25:36.861Z,79.90
2022-09-16T09:28:45.788Z,78.30
2022-09-16T09:31:45.213Z,77.60
2022-09-16T09:34:41.756Z,77.66
2022-09-16T09:37:19.363Z,77.58
2022-09-16T09:40:20.658Z,77.07
2022-09-16T09:43:02.639Z,76.52
2022-09-16T09:45:56.304Z,75.35
2022-09-16T09:48:46.059Z,73.83
2022-09-16T09:51:27.545Z,74.28
2022-09-16T09:54:06.062Z,74.56
2022-09-16T09:56:44.038Z,74.06
2022-09-16T09:59:52.253Z,73.30
2022-09-16T10:02:24.080Z,74.33
2022-09-16T10:04:55.481Z,71.99
2022-09-16T10:07:28.549Z,71.43
2022-09-16T10:10:11.248Z,70.63
2022-09-16T10:12:43.075Z,71.17
2022-09-16T10:15:34.157Z,70.86
2022-09-16T10:18:24.292Z,71.62
2022-09-16T10:21:16.772Z,71.92
2022-09-16T10:23:58.391Z,72.86
2022-09-16T10:26:29.770Z,74.92
2022-09-16T10:29:13.438Z,76.55
2022-09-16T10:31:45.299Z,76.43
2022-09-16T10:34:40.290Z,75.88
2022-09-16T10:37:12.646Z,74.76
2022-09-16T10:39:51.495Z,74.77
2022-09-16T10:42:25.691Z,77.39
2022-09-16T10:45:13.824Z,79.75
2022-09-16T10:47:50.970Z,81.55
2022-09-16T10:50:22.799Z,81.44
2022-09-16T10:52:54.973Z,81.97
2022-09-16T10:55:35.226Z,82.34
2022-09-16T10:58:26.781Z,82.74
2022-09-16T11:00:58.161Z,83.52
2022-09-16T11:03:46.736Z,84.11
2022-09-16T11:06:35.645Z,84.14
2022-09-16T11:09:44.685Z,83.88
2022-09-16T11:12:47.878Z,84.08
2022-09-16T11:15:56.730Z,83.53
2022-09-16T11:18:41.444Z,84.01
2022-09-16T11:21:33.016Z,83.50
2022-09-16T11:24:20.211Z,83.73
2022-09-16T11:26:59.489Z,83.36
2022-09-16T11:29:42.532Z,82.91
2022-09-16T11:32:44.641Z,82.19
2022-09-16T11:35:46.615Z,82.06
2022-09-16T11:38:20.636Z,82.32
2022-09-16T11:41:03.729Z,81.93
2022-09-16T11:43:52.386Z,80.96
2022-09-16T11:46:58.965Z,80.22
2022-09-16T11:50:08.023Z,81.00
2022-09-16T11:53:04.156Z,80.99
2022-09-16T11:55:49.309Z,79.82
2022-09-16T11:58:30.264Z,77.47
2022-09-16T12:01:26.100Z,75.63
2022-09-16T12:04:24.516Z,76.95
2022-09-16T12:07:14.619Z,79.11
2022-09-16T12:09:55.668Z,80.44
2022-09-16T12:12:37.225Z,81.33
2022-09-16T12:15:47.712Z,82.89
2022-09-16T12:18:32.808Z,83.94
2022-09-16T12:21:25.363Z,84.33
2022-09-16T12:24:06.827Z,85.05
2022-09-16T12:26:45.157Z,85.99
2022-09-16T12:29:26.576Z,86.36
2022-09-16T12:32:13.127Z,86.45
2022-09-16T12:34:49.190Z,86.23
2022-09-16T12:37:33.665Z,87.19
2022-09-16T12:40:13.004Z,86.78
2022-09-16T12:42:59.335Z,86.47
2022-09-16T12:45:57.173Z,86.56
2022-09-16T12:48:40.108Z,86.66
2022-09-16T12:51:32.178Z,86.93
2022-09-16T12:54:51.243Z,86.38
2022-09-16T12:57:55.004Z,86.26
2022-09-16T13:00:39.401Z,85.85
2022-09-16T13:03:17.809Z,84.96
2022-09-16T13:05:52.037Z,84.12
2022-09-16T13:08:25.778Z,83.25
2022-09-16T13:11:25.570Z,82.71
2022-09-16T13:13:59.222Z,83.13
2022-09-16T13:16:36.112Z,82.95
2022-09-16T13:19:22.274Z,82.67
2022-09-16T13:22:15.336Z,83.28
2022-09-16T13:24:54.760Z,84.59
2022-09-16T13:27:34.302Z,85.64
2022-09-16T13:30:26.213Z,86.29
2022-09-16T13:33:01.473Z,86.48
2022-09-16T13:35:41.927Z,86.53
2022-09-16T13:38:19.222Z,86.53
2022-09-16T13:40:59.968Z,85.81
2022-09-16T13:43:34.054Z,86.22
2022-09-16T13:46:09.952Z,86.33
2022-09-16T13:49:11.023Z,86.44
2022-09-16T13:51:45.322Z,85.70
2022-09-16T13:54:30.871Z,85.37
2022-09-16T13:57:12.924Z,84.96
2022-09-16T14:00:15.728Z,85.13
2022-09-16T14:02:47.281Z,84.88
2022-09-16T14:05:36.430Z,85.40
2022-09-16T14:08:51.510Z,85.80
2022-09-16T14:11:49.464Z,86.21
2022-09-16T14:17:20.787Z,87.01
2022-09-16T14:20:00.120Z,87.66
2022-09-16T14:22:31.964Z,87.50
2022-09-16T14:25:19.286Z,88.05
2022-09-16T14:28:30.405Z,88.19
2022-09-16T14:31:06.545Z,88.28
2022-09-16T14:33:40.539Z,88.81
2022-09-16T14:36:32.558Z,89.00
2022-09-16T14:39:06.378Z,89.09
2022-09-16T14:41:43.333Z,89.21
2022-09-16T14:44:20.876Z,89.83
2022-09-16T14:47:39.793Z,89.60
2022-09-16T14:50:28.309Z,90.05
2022-09-16T14:53:01.890Z,90.23
2022-09-16T14:55:37.534Z,90.69
2022-09-16T14:58:10.843Z,90.72
2022-09-16T15:01:09.034Z,90.90
2022-09-16T15:03:52.883Z,91.22
2022-09-16T15:06:28.718Z,91.34
2022-09-16T15:09:30.722Z,91.60
2022-09-16T15:12:03.067Z,91.88
2022-09-16T15:14:38.084Z,92.01
2022-09-16T15:17:09.559Z,92.28
2022-09-16T15:19:41.659Z,92.22
2022-09-16T15:22:15.120Z,92.49
2022-09-16T15:24:52.718Z,92.69
2022-09-16T15:27:26.986Z,92.60
2022-09-16T15:30:00.932Z,92.93
2022-09-16T15:32:43.663Z,93.22
2022-09-16T15:35:24.028Z,93.28
2022-09-16T15:37:55.801Z,93.28
2022-09-16T15:40:27.121Z,93.55
2022-09-16T15:43:13.806Z,93.69
2022-09-16T15:45:56.124Z,93.63
2022-09-16T15:48:34.253Z,93.76
2022-09-16T15:51:29.206Z,93.94
2022-09-16T15:54:17.096Z,93.91
2022-09-16T15:57:26.227Z,94.09
2022-09-16T16:00:12.221Z,94.10
2022-09-16T16:02:49.469Z,94.56
2022-09-16T16:05:23.724Z,94.34
2022-09-16T16:07:58.649Z,94.20
2022-09-16T16:10:32.878Z,94.40
2022-09-16T16:13:04.641Z,94.35
2022-09-16T16:15:38.703Z,94.67
2022-09-16T16:18:10.728Z,94.76
2022-09-16T16:20:42.092Z,94.45
2022-09-16T16:23:14.715Z,94.57
2022-09-16T16:25:48.172Z,94.56
2022-09-16T16:28:19.465Z,94.83
2022-09-16T16:30:50.985Z,94.95
2022-09-16T16:33:22.454Z,95.08
2022-09-16T16:35:53.763Z,95.34
2022-09-16T16:38:25.045Z,95.33
2022-09-16T16:40:56.427Z,95.44
2022-09-16T16:43:29.721Z,95.41
2022-09-16T16:46:01.098Z,95.51
2022-09-16T16:48:32.490Z,95.47
2022-09-16T16:51:07.622Z,95.56
2022-09-16T16:53:39.565Z,95.82
2022-09-16T16:56:15.041Z,95.88
2022-09-16T16:58:46.976Z,95.69
2022-09-16T17:01:20.040Z,95.80
2022-09-16T17:03:51.418Z,95.48
2022-09-16T17:06:22.782Z,95.82
2022-09-16T17:08:54.727Z,95.76
2022-09-16T17:11:26.669Z,95.86
2022-09-16T17:14:00.911Z,95.77
2022-09-16T17:16:33.679Z,95.67
2022-09-16T17:19:04.978Z,95.64
2022-09-16T17:21:36.555Z,95.93
2022-09-16T17:24:08.002Z,95.55
2022-09-16T17:26:39.488Z,95.81
2022-09-16T17:29:15.750Z,95.80
2022-09-16T17:31:47.461Z,96.07
2022-09-16T17:34:18.870Z,95.67
2022-09-16T17:36:50.312Z,95.79
2022-09-16T17:39:22.542Z,95.65
2022-09-16T17:41:56.441Z,95.83
2022-09-16T17:44:27.893Z,95.60
2022-09-16T17:46:59.192Z,95.73
2022-09-16T17:49:30.998Z,95.73
2022-09-16T17:52:02.661Z,95.63
2022-09-16T17:54:33.980Z,95.54
2022-09-16T17:57:05.277Z,95.87
2022-09-16T17:59:36.554Z,95.80
2022-09-16T18:02:09.796Z,95.52
2022-09-16T18:04:43.135Z,95.72
2022-09-16T18:07:14.632Z,95.80
2022-09-16T18:09:46.030Z,95.71
2022-09-16T18:12:17.301Z,95.41
2022-09-16T18:14:48.706Z,95.44
2022-09-16T18:17:20.002Z,95.37
2022-09-16T18:19:51.546Z,95.27
2022-09-16T18:22:22.866Z,95.50
2022-09-16T18:24:54.186Z,95.55
2022-09-16T18:27:25.741Z,95.75
2022-09-16T18:29:57.731Z,95.65
2022-09-16T18:32:31.668Z,95.56
2022-09-16T18:35:03.103Z,95.97
2022-09-16T18:37:34.448Z,95.78
2022-09-16T18:40:06.511Z,95.84
2022-09-16T18:42:37.832Z,95.69
2022-09-16T18:45:09.433Z,95.61
2022-09-16T18:47:40.874Z,95.89
2022-09-16T18:50:12.362Z,95.58
2022-09-16T18:52:43.760Z,95.66
2022-09-16T18:55:15.934Z,95.71
2022-09-16T18:57:47.221Z,95.62
2022-09-16T19:00:18.562Z,95.31
2022-09-16T19:02:49.941Z,95.48
2022-09-16T19:05:22.297Z,95.65
2022-09-16T19:07:53.601Z,95.77
2022-09-16T19:10:26.126Z,95.59
2022-09-16T19:12:57.440Z,95.37
2022-09-16T19:15:29.081Z,95.46
2022-09-16T19:18:00.397Z,95.52
2022-09-16T19:20:31.719Z,95.59
2022-09-16T19:23:02.996Z,95.75
2022-09-16T19:25:34.294Z,95.68
2022-09-16T19:28:05.765Z,95.67
2022-09-16T19:30:37.080Z,95.45
2022-09-16T19:33:08.419Z,95.04
2022-09-16T19:35:39.702Z,95.37
2022-09-16T19:38:11.009Z,95.48
2022-09-16T19:40:42.276Z,95.27
2022-09-16T19:43:14.167Z,95.52
2022-09-16T19:45:45.524Z,95.50
2022-09-16T19:48:16.851Z,95.36
2022-09-16T19:50:53.912Z,95.29
2022-09-16T19:53:26.562Z,95.36
2022-09-16T19:56:03.800Z,95.48
2022-09-16T19:58:37.195Z,95.25
2022-09-16T20:01:11.608Z,95.39
2022-09-16T20:03:45.866Z,95.55
2022-09-16T20:06:27.841Z,95.98
2022-09-16T20:09:00.990Z,95.92
2022-09-16T20:11:34.818Z,95.81
2022-09-16T20:14:13.428Z,95.96
2022-09-16T20:16:44.986Z,95.87
2022-09-16T20:19:18.213Z,96.07
2022-09-16T20:21:49.565Z,96.06
2022-09-16T20:24:23.526Z,96.35
2022-09-16T20:26:55.955Z,96.08
2022-09-16T20:29:27.264Z,96.08
2022-09-16T20:31:58.756Z,95.90
2022-09-16T20:34:30.057Z,95.88
2022-09-16T20:37:01.319Z,95.68
2022-09-16T20:39:33.009Z,95.93
2022-09-16T20:42:04.484Z,95.93
2022-09-16T20:44:35.844Z,95.94
2022-09-16T20:47:07.092Z,95.96
2022-09-16T20:49:38.541Z,95.98
2022-09-16T20:52:09.811Z,95.82
2022-09-16T20:54:41.084Z,95.81
2022-09-16T20:57:12.393Z,96.11
2022-09-16T20:59:43.773Z,95.93
2022-09-16T21:02:15.284Z,95.92
2022-09-16T21:04:46.587Z,95.90
2022-09-16T21:07:17.904Z,96.32
2022-09-16T21:09:49.168Z,96.24
2022-09-16T21:12:20.538Z,96.18
2022-09-16T21:14:51.789Z,96.04
2022-09-16T21:17:23.192Z,95.85
2022-09-16T21:19:54.757Z,95.82
2022-09-16T21:22:26.088Z,95.80
2022-09-16T21:24:57.641Z,96.13
2022-09-16T21:27:31.357Z,95.83
2022-09-16T21:30:03.733Z,96.12
2022-09-16T21:32:34.988Z,96.19
2022-09-16T21:35:06.505Z,95.97
2022-09-16T21:37:37.781Z,96.35
2022-09-16T21:40:10.118Z,96.25
2022-09-16T21:42:41.469Z,96.48
2022-09-16T21:45:12.850Z,96.30
2022-09-16T21:47:44.312Z,96.57
2022-09-16T21:50:15.789Z,96.65
2022-09-16T21:52:47.041Z,96.84
2022-09-16T21:55:18.314Z,96.69
2022-09-16T21:57:49.545Z,96.55
2022-09-16T22:00:20.829Z,96.61
2022-09-16T22:02:52.077Z,96.97
2022-09-16T22:05:23.522Z,96.79
2022-09-16T22:07:54.894Z,96.82
2022-09-16T22:10:27.038Z,96.96
2022-09-16T22:12:58.837Z,97.29
2022-09-16T22:15:30.142Z,96.84
2022-09-16T22:18:02.259Z,96.96
2022-09-16T22:20:33.563Z,96.96
2022-09-16T22:23:04.820Z,96.96
2022-09-16T22:25:36.454Z,96.74
2022-09-16T22:28:07.901Z,96.71
2022-09-16T22:30:39.488Z,96.94
2022-09-16T22:33:10.768Z,96.88
2022-09-16T22:35:42.036Z,96.85
2022-09-16T22:38:13.307Z,96.84
2022-09-16T22:40:44.560Z,96.97
2022-09-16T22:43:15.845Z,96.90
2022-09-16T22:45:47.090Z,96.86
2022-09-16T22:48:18.848Z,96.92
2022-09-16T22:50:57.327Z,96.97
2022-09-16T22:53:30.282Z,97.10
2022-09-16T22:56:04.805Z,97.17
2022-09-16T22:58:36.104Z,97.05
2022-09-16T23:01:19.524Z,97.03
2022-09-16T23:03:54.464Z,96.98
2022-09-16T23:06:27.396Z,97.05
2022-09-16T23:08:59.203Z,97.17
2022-09-16T23:11:32.659Z,97.17
2022-09-16T23:14:06.219Z,97.42
2022-09-16T23:16:38.387Z,97.69
2022-09-16T23:19:11.488Z,97.37
2022-09-16T23:21:43.228Z,97.30
2022-09-16T23:24:17.378Z,97.55
2022-09-16T23:26:49.188Z,97.53
2022-09-16T23:29:20.538Z,97.69
2022-09-16T23:31:51.784Z,97.67
2022-09-16T23:34:23.165Z,97.44
2022-09-16T23:36:54.438Z,97.29
2022-09-16T23:39:25.874Z,97.33
2022-09-16T23:41:57.200Z,97.28
2022-09-16T23:44:28.566Z,97.43
2022-09-16T23:46:59.886Z,97.18
2022-09-16T23:49:31.257Z,97.18
2022-09-16T23:52:02.780Z,97.18
2022-09-16T23:54:34.684Z,97.45
2022-09-16T23:57:06.424Z,97.40
2022-09-16T23:59:37.710Z,97.23
